createdAt,value
2023-05-14T00:00:09.007Z,88394.00
2023-05-14T00:01:09.022Z,88394.00
2023-05-14T00:02:09.063Z,88394.00
2023-05-14T00:03:09.199Z,88394.00
2023-05-14T00:04:09.090Z,88390.00
2023-05-14T00:05:09.029Z,88390.00
2023-05-14T00:06:09.066Z,88386.00
2023-05-14T00:07:09.031Z,88386.00
2023-05-14T00:08:09.023Z,88384.00
2023-05-14T00:09:09.002Z,88382.00
2023-05-14T00:10:09.004Z,88384.00
2023-05-14T00:11:09.121Z,88384.00
2023-05-14T00:12:09.076Z,88382.00
2023-05-14T00:13:09.092Z,88381.00
2023-05-14T00:14:09.080Z,88381.00
2023-05-14T00:15:09.082Z,88379.00
2023-05-14T00:16:09.108Z,88375.00
2023-05-14T00:17:09.058Z,88375.00
2023-05-14T00:18:09.083Z,88375.00
2023-05-14T00:19:09.106Z,88373.00
2023-05-14T00:20:09.021Z,88373.00
2023-05-14T00:21:09.046Z,88369.00
2023-05-14T00:22:08.986Z,88369.00
2023-05-14T00:23:08.976Z,88371.00
2023-05-14T00:24:08.945Z,88363.00
2023-05-14T00:25:08.929Z,88363.00
2023-05-14T00:26:08.894Z,88361.00
2023-05-14T00:27:08.890Z,88361.00
2023-05-14T00:28:08.868Z,88359.00
2023-05-14T00:29:08.859Z,88361.00
2023-05-14T00:30:08.854Z,88363.00
2023-05-14T00:31:08.897Z,88363.00
2023-05-14T00:32:08.837Z,88359.00
2023-05-14T00:33:08.842Z,88361.00
2023-05-14T00:34:08.810Z,88365.00
2023-05-14T00:35:08.790Z,88363.00
2023-05-14T00:36:08.771Z,88361.00
2023-05-14T00:37:08.779Z,88359.00
2023-05-14T00:38:08.755Z,88357.00
2023-05-14T00:39:08.724Z,88361.00
2023-05-14T00:40:08.761Z,88359.00
2023-05-14T00:41:08.695Z,88361.00
2023-05-14T00:42:08.673Z,88359.00
2023-05-14T00:43:08.686Z,88359.00
2023-05-14T00:44:08.696Z,88359.00
2023-05-14T00:45:08.669Z,88359.00
2023-05-14T00:46:08.697Z,88359.00
2023-05-14T00:47:09.025Z,88359.00
2023-05-14T00:48:08.769Z,88359.00
2023-05-14T00:49:08.745Z,88359.00
2023-05-14T00:50:09.215Z,88357.00
2023-05-14T00:51:08.876Z,88357.00
2023-05-14T00:52:08.796Z,88353.00
2023-05-14T00:53:08.871Z,88355.00
2023-05-14T00:54:08.872Z,88353.00
2023-05-14T00:55:08.912Z,88355.00
2023-05-14T00:56:09.702Z,88355.00
2023-05-14T00:57:08.980Z,88351.00
2023-05-14T00:58:09.010Z,88351.00
2023-05-14T00:59:09.051Z,88351.00
2023-05-14T01:00:09.081Z,88353.00
2023-05-14T01:01:09.170Z,88351.00
2023-05-14T01:02:09.154Z,88349.00
2023-05-14T01:03:09.395Z,88347.00
2023-05-14T01:04:09.271Z,88345.00
2023-05-14T01:05:09.251Z,88345.00
2023-05-14T01:06:09.225Z,88347.00
2023-05-14T01:07:09.232Z,88347.00
2023-05-14T01:08:09.217Z,88351.00
2023-05-14T01:09:09.221Z,88349.00
2023-05-14T01:10:09.207Z,88349.00
2023-05-14T01:11:09.216Z,88351.00
2023-05-14T01:12:09.182Z,88353.00
2023-05-14T01:13:09.188Z,88353.00
2023-05-14T01:14:09.166Z,88353.00
2023-05-14T01:15:09.190Z,88349.00
2023-05-14T01:16:09.216Z,88351.00
2023-05-14T01:17:09.127Z,88351.00
2023-05-14T01:18:09.155Z,88351.00
2023-05-14T01:19:09.123Z,88349.00
2023-05-14T01:20:09.136Z,88351.00
2023-05-14T01:21:09.101Z,88347.00
2023-05-14T01:22:09.107Z,88349.00
2023-05-14T01:23:09.136Z,88349.00
2023-05-14T01:24:09.147Z,88349.00
2023-05-14T01:25:09.187Z,88349.00
2023-05-14T01:26:10.215Z,88349.00
2023-05-14T01:27:09.242Z,88353.00
2023-05-14T01:28:09.221Z,88357.00
2023-05-14T01:29:09.196Z,88355.00
2023-05-14T01:30:09.198Z,88357.00
2023-05-14T01:31:09.180Z,88351.00
2023-05-14T01:32:09.325Z,88357.00
2023-05-14T01:33:09.203Z,88357.00
2023-05-14T01:34:09.186Z,88357.00
2023-05-14T01:35:09.190Z,88357.00
2023-05-14T01:36:09.200Z,88355.00
2023-05-14T01:37:09.188Z,88355.00
2023-05-14T01:38:09.733Z,88351.00
2023-05-14T01:39:09.159Z,88349.00
2023-05-14T01:40:09.174Z,88351.00
2023-05-14T01:41:09.139Z,88351.00
2023-05-14T01:42:09.161Z,88351.00
2023-05-14T01:43:09.147Z,88355.00
2023-05-14T01:44:09.159Z,88357.00
2023-05-14T01:45:09.113Z,88355.00
2023-05-14T01:46:09.194Z,88357.00
2023-05-14T01:47:09.100Z,88355.00
2023-05-14T01:48:09.150Z,88355.00
2023-05-14T01:49:09.099Z,88355.00
2023-05-14T01:50:09.173Z,88353.00
2023-05-14T01:51:09.086Z,88351.00
2023-05-14T01:52:09.086Z,88351.00
2023-05-14T01:53:09.157Z,88353.00
2023-05-14T01:54:09.094Z,88353.00
2023-05-14T01:55:09.109Z,88355.00
2023-05-14T01:56:09.109Z,88353.00
2023-05-14T01:57:09.084Z,88353.00
2023-05-14T01:58:09.135Z,88351.00
2023-05-14T01:59:09.067Z,88351.00
2023-05-14T02:00:09.069Z,88349.00
2023-05-14T02:01:09.090Z,88349.00
2023-05-14T02:02:09.082Z,88349.00
2023-05-14T02:03:09.134Z,88345.00
2023-05-14T02:04:09.132Z,88349.00
2023-05-14T02:05:09.114Z,88347.00
2023-05-14T02:06:09.169Z,88347.00
2023-05-14T02:07:09.211Z,88345.00
2023-05-14T02:08:09.252Z,88345.00
2023-05-14T02:09:09.279Z,88345.00
2023-05-14T02:10:09.327Z,88341.00
2023-05-14T02:11:10.215Z,88341.00
2023-05-14T02:12:09.423Z,88341.00
2023-05-14T02:13:09.448Z,88341.00
2023-05-14T02:14:09.526Z,88341.00
2023-05-14T02:15:09.569Z,88339.00
2023-05-14T02:16:09.653Z,88341.00
2023-05-14T02:17:10.197Z,88341.00
2023-05-14T02:18:09.808Z,88341.00
2023-05-14T02:19:09.741Z,88341.00
2023-05-14T02:20:09.768Z,88341.00
2023-05-14T02:21:09.786Z,88339.00
2023-05-14T02:22:09.862Z,88339.00
2023-05-14T02:23:09.894Z,88339.00
2023-05-14T02:24:09.948Z,88341.00
2023-05-14T02:25:10.015Z,88337.00
2023-05-14T02:26:10.079Z,88335.00
2023-05-14T02:27:10.084Z,88335.00
2023-05-14T02:28:10.128Z,88333.00
2023-05-14T02:29:10.139Z,88335.00
2023-05-14T02:30:10.200Z,88337.00
2023-05-14T02:31:10.262Z,88335.00
2023-05-14T02:32:10.233Z,88333.00
2023-05-14T02:33:10.332Z,88331.00
2023-05-14T02:34:10.202Z,88331.00
2023-05-14T02:35:10.222Z,88331.00
2023-05-14T02:36:10.216Z,88329.00
2023-05-14T02:37:10.209Z,88331.00
2023-05-14T02:38:10.209Z,88329.00
2023-05-14T02:39:10.242Z,88329.00
2023-05-14T02:40:10.237Z,88327.00
2023-05-14T02:41:10.212Z,88326.00
2023-05-14T02:42:10.222Z,88326.00
2023-05-14T02:43:10.257Z,88326.00
2023-05-14T02:44:10.282Z,88326.00
2023-05-14T02:45:10.301Z,88326.00
2023-05-14T02:46:10.352Z,88324.00
2023-05-14T02:47:10.526Z,88324.00
2023-05-14T02:48:10.552Z,88322.00
2023-05-14T02:49:10.535Z,88322.00
2023-05-14T02:50:10.562Z,88322.00
2023-05-14T02:51:10.594Z,88320.00
2023-05-14T02:52:10.627Z,88320.00
2023-05-14T02:53:10.650Z,88318.00
2023-05-14T02:54:10.696Z,88316.00
2023-05-14T02:55:10.750Z,88314.00
2023-05-14T02:56:10.841Z,88316.00
2023-05-14T02:57:10.874Z,88314.00
2023-05-14T02:58:10.940Z,88316.00
2023-05-14T02:59:11.040Z,88316.00
2023-05-14T03:00:11.092Z,88316.00
2023-05-14T03:01:11.181Z,88314.00
2023-05-14T03:02:11.195Z,88314.00
2023-05-14T03:03:11.186Z,88310.00
2023-05-14T03:04:11.220Z,88310.00
2023-05-14T03:05:11.263Z,88312.00
2023-05-14T03:06:11.329Z,88310.00
2023-05-14T03:07:11.306Z,88308.00
2023-05-14T03:08:11.331Z,88310.00
2023-05-14T03:09:11.375Z,88310.00
2023-05-14T03:10:11.373Z,88314.00
2023-05-14T03:11:11.383Z,88314.00
2023-05-14T03:12:11.377Z,88316.00
2023-05-14T03:13:11.410Z,88318.00
2023-05-14T03:14:11.422Z,88320.00
2023-05-14T03:15:11.452Z,88322.00
2023-05-14T03:16:11.597Z,88324.00
2023-05-14T03:17:11.622Z,88324.00
2023-05-14T03:18:11.459Z,88326.00
2023-05-14T03:19:11.495Z,88326.00
2023-05-14T03:20:11.451Z,88327.00
2023-05-14T03:21:11.468Z,88331.00
2023-05-14T03:22:11.461Z,88331.00
2023-05-14T03:23:11.481Z,88331.00
2023-05-14T03:24:11.496Z,88331.00
2023-05-14T03:25:11.477Z,88331.00
2023-05-14T03:26:11.500Z,88335.00
2023-05-14T03:27:11.484Z,88333.00
2023-05-14T03:28:11.495Z,88331.00
2023-05-14T03:29:11.505Z,88331.00
2023-05-14T03:30:11.548Z,88331.00
2023-05-14T03:31:11.633Z,88329.00
2023-05-14T03:32:11.612Z,88331.00
2023-05-14T03:33:11.650Z,88331.00
2023-05-14T03:34:11.689Z,88331.00
2023-05-14T03:35:11.694Z,88329.00
2023-05-14T03:36:11.728Z,88329.00
2023-05-14T03:37:11.781Z,88326.00
2023-05-14T03:38:11.833Z,88327.00
2023-05-14T03:39:11.899Z,88327.00
2023-05-14T03:40:11.989Z,88326.00
2023-05-14T03:41:12.055Z,88326.00
2023-05-14T03:42:12.075Z,88324.00
2023-05-14T03:43:12.114Z,88324.00
2023-05-14T03:44:12.173Z,88322.00
2023-05-14T03:45:12.225Z,88318.00
2023-05-14T03:46:12.294Z,88318.00
2023-05-14T03:47:12.363Z,88318.00
2023-05-14T03:48:12.548Z,88320.00
2023-05-14T03:49:12.505Z,88320.00
2023-05-14T03:50:12.479Z,88318.00
2023-05-14T03:51:12.502Z,88320.00
2023-05-14T03:52:12.564Z,88320.00
2023-05-14T03:53:12.574Z,88320.00
2023-05-14T03:54:12.574Z,88320.00
2023-05-14T03:55:12.578Z,88324.00
2023-05-14T03:56:12.659Z,88326.00
2023-05-14T03:57:12.632Z,88326.00
2023-05-14T03:58:12.650Z,88327.00
2023-05-14T03:59:12.723Z,88331.00
2023-05-14T04:00:12.759Z,88333.00
2023-05-14T04:01:12.765Z,88331.00
2023-05-14T04:02:12.856Z,88329.00
2023-05-14T04:03:12.998Z,88327.00
2023-05-14T04:04:12.924Z,88324.00
2023-05-14T04:05:12.901Z,88324.00
2023-05-14T04:06:12.904Z,88324.00
2023-05-14T04:07:12.914Z,88322.00
2023-05-14T04:08:12.908Z,88320.00
2023-05-14T04:09:12.933Z,88318.00
2023-05-14T04:10:12.915Z,88320.00
2023-05-14T04:11:12.918Z,88322.00
2023-05-14T04:12:12.907Z,88318.00
2023-05-14T04:13:12.913Z,88320.00
2023-05-14T04:14:12.925Z,88320.00
2023-05-14T04:15:12.920Z,88320.00
2023-05-14T04:16:12.949Z,88320.00
2023-05-14T04:17:12.925Z,88318.00
2023-05-14T04:18:13.006Z,88320.00
2023-05-14T04:19:13.014Z,88320.00
2023-05-14T04:20:12.988Z,88320.00
2023-05-14T04:21:13.060Z,88316.00
2023-05-14T04:22:13.118Z,88320.00
2023-05-14T04:23:13.158Z,88318.00
2023-05-14T04:24:13.236Z,88316.00
2023-05-14T04:25:13.331Z,88318.00
2023-05-14T04:26:13.370Z,88314.00
2023-05-14T04:27:13.414Z,88314.00
2023-05-14T04:28:13.445Z,88314.00
2023-05-14T04:29:13.494Z,88314.00
2023-05-14T04:30:13.510Z,88312.00
2023-05-14T04:31:13.536Z,88312.00
2023-05-14T04:32:13.469Z,88310.00
2023-05-14T04:33:13.446Z,88310.00
2023-05-14T04:34:13.448Z,88312.00
2023-05-14T04:35:13.421Z,88310.00
2023-05-14T04:36:13.417Z,88310.00
2023-05-14T04:37:13.404Z,88310.00
2023-05-14T04:38:13.404Z,88308.00
2023-05-14T04:39:13.401Z,88304.00
2023-05-14T04:40:13.365Z,88306.00
2023-05-14T04:41:13.363Z,88306.00
2023-05-14T04:42:13.358Z,88304.00
2023-05-14T04:43:13.332Z,88306.00
2023-05-14T04:44:13.342Z,88306.00
2023-05-14T04:45:13.325Z,88308.00
2023-05-14T04:46:13.439Z,88310.00
2023-05-14T04:47:13.438Z,88308.00
2023-05-14T04:48:13.482Z,88310.00
2023-05-14T04:49:13.509Z,88306.00
2023-05-14T04:50:13.527Z,88308.00
2023-05-14T04:51:13.521Z,88308.00
2023-05-14T04:52:13.524Z,88310.00
2023-05-14T04:53:13.521Z,88310.00
2023-05-14T04:54:13.548Z,88310.00
2023-05-14T04:55:13.553Z,88308.00
2023-05-14T04:56:13.532Z,88306.00
2023-05-14T04:57:13.553Z,88304.00
2023-05-14T04:58:13.589Z,88306.00
2023-05-14T04:59:13.630Z,88302.00
2023-05-14T05:00:13.631Z,88302.00
2023-05-14T05:01:13.751Z,88302.00
2023-05-14T05:02:13.640Z,88300.00
2023-05-14T05:03:13.780Z,88294.00
2023-05-14T05:04:13.670Z,88294.00
2023-05-14T05:05:13.609Z,88296.00
2023-05-14T05:06:13.602Z,88294.00
2023-05-14T05:07:13.579Z,88296.00
2023-05-14T05:08:13.551Z,88296.00
2023-05-14T05:09:13.517Z,88298.00
2023-05-14T05:10:13.481Z,88300.00
2023-05-14T05:11:13.463Z,88300.00
2023-05-14T05:12:13.422Z,88300.00
2023-05-14T05:13:13.388Z,88302.00
2023-05-14T05:14:13.355Z,88302.00
2023-05-14T05:15:13.328Z,88302.00
2023-05-14T05:16:13.327Z,88302.00
2023-05-14T05:17:13.283Z,88298.00
2023-05-14T05:18:13.296Z,88302.00
2023-05-14T05:19:13.385Z,88302.00
2023-05-14T05:20:13.273Z,88298.00
2023-05-14T05:21:13.258Z,88298.00
2023-05-14T05:22:13.212Z,88296.00
2023-05-14T05:23:13.301Z,88294.00
2023-05-14T05:24:13.244Z,88296.00
2023-05-14T05:25:13.302Z,88296.00
2023-05-14T05:26:13.230Z,88296.00
2023-05-14T05:27:13.217Z,88296.00
2023-05-14T05:28:13.171Z,88290.00
2023-05-14T05:29:13.135Z,88292.00
2023-05-14T05:30:13.080Z,88290.00
2023-05-14T05:31:13.060Z,88288.00
2023-05-14T05:32:13.003Z,88286.00
2023-05-14T05:33:12.978Z,88286.00
2023-05-14T05:34:12.942Z,88284.00
2023-05-14T05:35:12.882Z,88284.00
2023-05-14T05:36:12.854Z,88286.00
2023-05-14T05:37:12.852Z,88284.00
2023-05-14T05:38:12.779Z,88290.00
2023-05-14T05:39:12.777Z,88286.00
2023-05-14T05:40:12.816Z,88286.00
2023-05-14T05:41:12.845Z,88286.00
2023-05-14T05:42:12.847Z,88282.00
2023-05-14T05:43:12.890Z,88282.00
2023-05-14T05:44:12.919Z,88277.00
2023-05-14T05:45:12.928Z,88277.00
2023-05-14T05:46:13.010Z,88277.00
2023-05-14T05:47:12.973Z,88275.00
2023-05-14T05:48:12.982Z,88279.00
2023-05-14T05:49:12.997Z,88280.00
2023-05-14T05:50:12.987Z,88280.00
2023-05-14T05:51:13.037Z,88280.00
2023-05-14T05:52:13.059Z,88280.00
2023-05-14T05:53:13.085Z,88279.00
2023-05-14T05:54:13.104Z,88279.00
2023-05-14T05:55:13.065Z,88282.00
2023-05-14T05:56:13.037Z,88280.00
2023-05-14T05:57:13.004Z,88277.00
2023-05-14T05:58:12.971Z,88275.00
2023-05-14T05:59:12.947Z,88273.00
2023-05-14T06:00:12.908Z,88269.00
2023-05-14T06:01:12.884Z,88271.00
2023-05-14T06:02:12.828Z,88269.00
2023-05-14T06:03:12.795Z,88265.00
2023-05-14T06:04:12.814Z,88265.00
2023-05-14T06:05:12.758Z,88265.00
2023-05-14T06:06:12.626Z,88267.00
2023-05-14T06:07:12.852Z,88267.00
2023-05-14T06:08:12.707Z,88267.00
2023-05-14T06:09:12.733Z,88265.00
2023-05-14T06:10:12.729Z,88265.00
2023-05-14T06:11:12.727Z,88269.00
2023-05-14T06:12:12.707Z,88267.00
2023-05-14T06:13:12.734Z,88267.00
2023-05-14T06:14:12.689Z,88267.00
2023-05-14T06:15:12.678Z,88265.00
2023-05-14T06:16:12.706Z,88261.00
2023-05-14T06:17:12.708Z,88259.00
2023-05-14T06:18:12.728Z,88261.00
2023-05-14T06:19:12.792Z,88261.00
2023-05-14T06:20:12.684Z,88257.00
2023-05-14T06:21:12.662Z,88259.00
2023-05-14T06:22:12.665Z,88257.00
2023-05-14T06:23:12.668Z,88251.00
2023-05-14T06:24:12.620Z,88253.00
2023-05-14T06:25:12.615Z,88251.00
2023-05-14T06:26:12.575Z,88253.00
2023-05-14T06:27:12.599Z,88249.00
2023-05-14T06:28:12.613Z,88249.00
2023-05-14T06:29:12.602Z,88247.00
2023-05-14T06:30:12.629Z,88247.00
2023-05-14T06:31:12.594Z,88249.00
2023-05-14T06:32:12.599Z,88249.00
2023-05-14T06:33:12.549Z,88245.00
2023-05-14T06:34:12.558Z,88249.00
2023-05-14T06:35:12.545Z,88249.00
2023-05-14T06:36:12.567Z,88245.00
2023-05-14T06:37:12.552Z,88243.00
2023-05-14T06:38:12.549Z,88234.00
2023-05-14T06:39:12.581Z,88234.00
2023-05-14T06:40:12.509Z,88241.00
2023-05-14T06:41:12.503Z,88234.00
2023-05-14T06:42:12.508Z,88232.00
2023-05-14T06:43:12.488Z,88230.00
2023-05-14T06:44:12.472Z,88230.00
2023-05-14T06:45:12.454Z,88230.00
2023-05-14T06:46:12.409Z,88228.00
2023-05-14T06:47:12.365Z,88232.00
2023-05-14T06:48:12.364Z,88234.00
2023-05-14T06:49:12.422Z,88241.00
2023-05-14T06:50:12.256Z,88241.00
2023-05-14T06:51:12.284Z,88247.00
2023-05-14T06:52:12.252Z,88243.00
2023-05-14T06:53:12.173Z,88243.00
2023-05-14T06:54:12.171Z,88241.00
2023-05-14T06:55:12.141Z,88243.00
2023-05-14T06:56:12.103Z,88243.00
2023-05-14T06:57:12.112Z,88245.00
2023-05-14T06:58:12.099Z,88243.00
2023-05-14T06:59:12.062Z,88243.00
2023-05-14T07:00:12.059Z,88241.00
2023-05-14T07:01:12.072Z,88241.00
2023-05-14T07:02:12.007Z,88234.00
2023-05-14T07:03:12.035Z,88232.00
2023-05-14T07:04:12.025Z,88232.00
2023-05-14T07:05:12.049Z,88230.00
2023-05-14T07:06:13.622Z,88228.00
2023-05-14T07:07:11.973Z,88228.00
2023-05-14T07:08:11.925Z,88226.00
2023-05-14T07:09:11.897Z,88222.00
2023-05-14T07:10:11.854Z,88218.00
2023-05-14T07:11:11.843Z,88222.00
2023-05-14T07:12:11.805Z,88216.00
2023-05-14T07:13:11.761Z,88216.00
2023-05-14T07:14:11.692Z,88220.00
2023-05-14T07:15:11.697Z,88218.00
2023-05-14T07:16:11.672Z,88214.00
2023-05-14T07:17:11.721Z,88214.00
2023-05-14T07:18:11.622Z,88209.00
2023-05-14T07:19:11.640Z,88211.00
2023-05-14T07:20:11.621Z,88211.00
2023-05-14T07:21:11.546Z,88209.00
2023-05-14T07:22:11.498Z,88209.00
2023-05-14T07:23:11.438Z,88209.00
2023-05-14T07:24:11.365Z,88205.00
2023-05-14T07:25:11.302Z,88203.00
2023-05-14T07:26:11.288Z,88199.00
2023-05-14T07:27:11.177Z,88197.00
2023-05-14T07:28:11.092Z,88193.00
2023-05-14T07:29:11.041Z,88195.00
2023-05-14T07:30:11.016Z,88193.00
2023-05-14T07:31:11.021Z,88193.00
2023-05-14T07:32:11.738Z,88189.00
2023-05-14T07:33:10.821Z,88187.00
2023-05-14T07:34:10.680Z,88187.00
2023-05-14T07:35:10.633Z,88193.00
2023-05-14T07:36:10.569Z,88189.00
2023-05-14T07:37:10.634Z,88189.00
2023-05-14T07:38:10.449Z,88185.00
2023-05-14T07:39:10.400Z,88187.00
2023-05-14T07:40:10.325Z,88181.00
2023-05-14T07:41:10.261Z,88181.00
2023-05-14T07:42:10.250Z,88181.00
2023-05-14T07:43:10.134Z,88179.00
2023-05-14T07:44:10.053Z,88181.00
2023-05-14T07:45:09.964Z,88177.00
2023-05-14T07:46:09.875Z,88173.00
2023-05-14T07:47:09.833Z,88175.00
2023-05-14T07:48:09.744Z,88173.00
2023-05-14T07:49:09.621Z,88171.00
2023-05-14T07:50:09.542Z,88171.00
2023-05-14T07:51:09.489Z,88169.00
2023-05-14T07:52:09.381Z,88169.00
2023-05-14T07:53:09.304Z,88169.00
2023-05-14T07:54:09.203Z,88169.00
2023-05-14T07:55:09.132Z,88171.00
2023-05-14T07:56:09.037Z,88169.00
2023-05-14T07:57:09.005Z,88167.00
2023-05-14T07:58:08.972Z,88167.00
2023-05-14T07:59:08.943Z,88167.00
2023-05-14T08:00:08.904Z,88165.00
2023-05-14T08:01:08.887Z,88167.00
2023-05-14T08:02:08.841Z,88162.00
2023-05-14T08:03:08.845Z,88165.00
2023-05-14T08:04:08.741Z,88164.00
2023-05-14T08:05:08.644Z,88164.00
2023-05-14T08:06:08.557Z,88165.00
2023-05-14T08:07:08.519Z,88165.00
2023-05-14T08:08:08.498Z,88162.00
2023-05-14T08:09:08.447Z,88165.00
2023-05-14T08:10:08.439Z,88164.00
2023-05-14T08:11:08.500Z,88160.00
2023-05-14T08:12:08.367Z,88156.00
2023-05-14T08:13:08.316Z,88156.00
2023-05-14T08:14:08.250Z,88156.00
2023-05-14T08:15:08.172Z,88160.00
2023-05-14T08:16:08.075Z,88158.00
2023-05-14T08:17:08.202Z,88156.00
2023-05-14T08:18:08.041Z,88152.00
2023-05-14T08:19:08.086Z,88150.00
2023-05-14T08:20:07.883Z,88152.00
2023-05-14T08:21:07.819Z,88148.00
2023-05-14T08:22:07.786Z,88148.00
2023-05-14T08:23:07.705Z,88148.00
2023-05-14T08:24:07.690Z,88144.00
2023-05-14T08:25:07.687Z,88148.00
2023-05-14T08:26:07.656Z,88142.00
2023-05-14T08:27:07.633Z,88144.00
2023-05-14T08:28:07.486Z,88140.00
2023-05-14T08:29:09.366Z,88136.00
2023-05-14T08:30:08.279Z,88130.00
2023-05-14T08:31:07.274Z,88134.00
2023-05-14T08:32:19.347Z,88136.00
2023-05-14T08:33:08.059Z,88134.00
2023-05-14T08:34:06.954Z,88128.00
2023-05-14T08:35:06.876Z,88124.00
2023-05-14T08:36:06.782Z,88126.00
2023-05-14T08:37:06.685Z,88124.00
2023-05-14T08:38:06.595Z,88128.00
2023-05-14T08:39:06.524Z,88124.00
2023-05-14T08:40:06.426Z,88120.00
2023-05-14T08:41:06.388Z,88120.00
2023-05-14T08:42:06.333Z,88122.00
2023-05-14T08:43:06.237Z,88116.00
2023-05-14T08:44:06.179Z,88114.00
2023-05-14T08:45:06.133Z,88120.00
2023-05-14T08:46:05.961Z,88116.00
2023-05-14T08:47:05.889Z,88118.00
2023-05-14T08:48:05.901Z,88118.00
2023-05-14T08:49:05.882Z,88114.00
2023-05-14T08:50:05.753Z,88116.00
2023-05-14T08:51:05.722Z,88118.00
2023-05-14T08:52:05.696Z,88118.00
2023-05-14T08:53:05.651Z,88118.00
2023-05-14T08:54:05.627Z,88118.00
2023-05-14T08:55:05.614Z,88120.00
2023-05-14T08:56:05.555Z,88112.00
2023-05-14T08:57:05.535Z,88114.00
2023-05-14T08:58:05.454Z,88112.00
2023-05-14T08:59:05.385Z,88116.00
2023-05-14T09:00:05.325Z,88109.00
2023-05-14T09:01:05.307Z,88110.00
2023-05-14T09:02:05.300Z,88110.00
2023-05-14T09:03:05.202Z,88107.00
2023-05-14T09:04:05.127Z,88105.00
2023-05-14T09:05:05.095Z,88109.00
2023-05-14T09:06:05.058Z,88112.00
2023-05-14T09:07:05.026Z,88107.00
2023-05-14T09:08:04.998Z,88107.00
2023-05-14T09:09:04.947Z,88103.00
2023-05-14T09:10:04.888Z,88107.00
2023-05-14T09:11:04.825Z,88107.00
2023-05-14T09:12:04.760Z,88107.00
2023-05-14T09:13:04.726Z,88103.00
2023-05-14T09:14:04.665Z,88101.00
2023-05-14T09:15:04.629Z,88103.00
2023-05-14T09:16:04.577Z,88105.00
2023-05-14T09:17:04.831Z,88101.00
2023-05-14T09:18:04.516Z,88099.00
2023-05-14T09:19:04.479Z,88099.00
2023-05-14T09:20:04.434Z,88101.00
2023-05-14T09:21:04.266Z,88097.00
2023-05-14T09:22:04.413Z,88095.00
2023-05-14T09:23:04.226Z,88107.00
2023-05-14T09:24:04.161Z,88099.00
2023-05-14T09:25:04.139Z,88099.00
2023-05-14T09:26:04.132Z,88095.00
2023-05-14T09:27:04.346Z,88097.00
2023-05-14T09:28:04.062Z,88101.00
2023-05-14T09:29:04.081Z,88093.00
2023-05-14T09:30:03.971Z,88091.00
2023-05-14T09:31:03.925Z,88095.00
2023-05-14T09:32:03.864Z,88087.00
2023-05-14T09:33:03.741Z,88089.00
2023-05-14T09:34:03.637Z,88089.00
2023-05-14T09:35:03.564Z,88091.00
2023-05-14T09:36:03.479Z,88087.00
2023-05-14T09:37:03.434Z,88089.00
2023-05-14T09:38:03.377Z,88087.00
2023-05-14T09:39:03.277Z,88085.00
2023-05-14T09:40:03.205Z,88089.00
2023-05-14T09:41:03.115Z,88089.00
2023-05-14T09:42:03.036Z,88099.00
2023-05-14T09:43:02.957Z,88091.00
2023-05-14T09:44:04.667Z,88089.00
2023-05-14T09:45:02.846Z,88087.00
2023-05-14T09:46:02.771Z,88087.00
2023-05-14T09:47:02.718Z,88081.00
2023-05-14T09:48:02.891Z,88085.00
2023-05-14T09:49:02.574Z,88091.00
2023-05-14T09:50:02.532Z,88079.00
2023-05-14T09:51:04.073Z,88085.00
2023-05-14T09:52:02.378Z,88079.00
2023-05-14T09:53:02.374Z,88073.00
2023-05-14T09:54:02.274Z,88081.00
2023-05-14T09:55:02.216Z,88075.00
2023-05-14T09:56:02.202Z,88085.00
2023-05-14T09:57:02.185Z,88079.00
2023-05-14T09:58:02.149Z,88077.00
2023-05-14T09:59:02.149Z,88079.00
2023-05-14T10:00:02.103Z,88079.00
2023-05-14T10:01:02.120Z,88083.00
2023-05-14T10:02:02.063Z,88079.00
2023-05-14T10:03:02.101Z,88073.00
2023-05-14T10:04:02.047Z,88077.00
2023-05-14T10:05:01.958Z,88079.00
2023-05-14T10:06:01.948Z,88077.00
2023-05-14T10:07:01.924Z,88075.00
2023-05-14T10:08:01.942Z,88083.00
2023-05-14T10:09:01.954Z,88079.00
2023-05-14T10:10:01.990Z,88081.00
2023-05-14T10:11:01.986Z,88085.00
2023-05-14T10:12:01.991Z,88085.00
2023-05-14T10:13:01.956Z,88079.00
2023-05-14T10:14:01.935Z,88079.00
2023-05-14T10:15:01.935Z,88077.00
2023-05-14T10:16:01.910Z,88077.00
2023-05-14T10:17:01.973Z,88081.00
2023-05-14T10:18:01.965Z,88077.00
2023-05-14T10:19:01.898Z,88081.00
2023-05-14T10:20:01.906Z,88077.00
2023-05-14T10:21:01.912Z,88077.00
2023-05-14T10:22:01.878Z,88081.00
2023-05-14T10:23:01.845Z,88081.00
2023-05-14T10:24:01.844Z,88083.00
2023-05-14T10:25:01.792Z,88085.00
2023-05-14T10:26:01.776Z,88085.00
2023-05-14T10:27:01.720Z,88085.00
2023-05-14T10:28:01.748Z,88087.00
2023-05-14T10:29:01.715Z,88085.00
2023-05-14T10:30:01.687Z,88087.00
2023-05-14T10:31:01.721Z,88087.00
2023-05-14T10:32:01.701Z,88087.00
2023-05-14T10:33:01.707Z,88091.00
2023-05-14T10:34:01.688Z,88085.00
2023-05-14T10:35:01.665Z,88085.00
2023-05-14T10:36:01.681Z,88087.00
2023-05-14T10:37:01.713Z,88087.00
2023-05-14T10:38:01.674Z,88091.00
2023-05-14T10:39:01.665Z,88085.00
2023-05-14T10:40:01.634Z,88089.00
2023-05-14T10:41:01.642Z,88087.00
2023-05-14T10:42:01.601Z,88089.00
2023-05-14T10:43:01.607Z,88083.00
2023-05-14T10:44:01.583Z,88085.00
2023-05-14T10:45:01.538Z,88083.00
2023-05-14T10:46:01.515Z,88085.00
2023-05-14T10:47:01.556Z,88081.00
2023-05-14T10:48:01.512Z,88081.00
2023-05-14T10:49:01.466Z,88075.00
2023-05-14T10:50:01.429Z,88075.00
2023-05-14T10:51:01.433Z,88079.00
2023-05-14T10:52:01.369Z,88071.00
2023-05-14T10:53:01.382Z,88069.00
2023-05-14T10:54:01.302Z,88069.00
2023-05-14T10:55:03.174Z,88067.00
2023-05-14T10:56:01.285Z,88067.00
2023-05-14T10:57:01.182Z,88065.00
2023-05-14T10:58:01.188Z,88067.00
2023-05-14T10:59:01.121Z,88069.00
2023-05-14T11:00:01.205Z,88069.00
2023-05-14T11:01:01.039Z,88065.00
2023-05-14T11:02:01.067Z,88069.00
2023-05-14T11:03:01.070Z,88063.00
2023-05-14T11:04:00.938Z,88060.00
2023-05-14T11:05:00.881Z,88063.00
2023-05-14T11:06:00.865Z,88054.00
2023-05-14T11:07:00.785Z,88063.00
2023-05-14T11:08:00.765Z,88058.00
2023-05-14T11:09:00.678Z,88052.00
2023-05-14T11:10:00.734Z,88056.00
2023-05-14T11:11:00.705Z,88058.00
2023-05-14T11:12:00.586Z,88058.00
2023-05-14T11:13:00.505Z,88054.00
2023-05-14T11:14:00.463Z,88054.00
2023-05-14T11:15:00.372Z,88052.00
2023-05-14T11:16:08.789Z,88052.00
2023-05-14T11:17:01.313Z,88052.00
2023-05-14T11:18:00.318Z,88052.00
2023-05-14T11:19:00.131Z,88050.00
2023-05-14T11:20:00.089Z,88050.00
2023-05-14T11:20:59.979Z,88050.00
2023-05-14T11:21:59.830Z,88052.00
2023-05-14T11:22:59.755Z,88050.00
2023-05-14T11:23:59.665Z,88048.00
2023-05-14T11:24:59.549Z,88050.00
2023-05-14T11:25:59.467Z,88044.00
2023-05-14T11:26:59.467Z,88044.00
2023-05-14T11:27:59.272Z,88042.00
2023-05-14T11:28:59.245Z,88042.00
2023-05-14T11:29:59.225Z,88042.00
2023-05-14T11:30:59.172Z,88038.00
2023-05-14T11:31:59.126Z,88038.00
2023-05-14T11:33:00.697Z,88038.00
2023-05-14T11:33:58.948Z,88040.00
2023-05-14T11:34:58.854Z,88032.00
2023-05-14T11:35:58.752Z,88028.00
2023-05-14T11:36:58.728Z,88024.00
2023-05-14T11:37:58.656Z,88028.00
2023-05-14T11:38:58.568Z,88026.00
2023-05-14T11:39:58.478Z,88026.00
2023-05-14T11:40:58.426Z,88028.00
2023-05-14T11:41:58.354Z,88026.00
2023-05-14T11:42:58.294Z,88026.00
2023-05-14T11:43:58.195Z,88030.00